Time;durP1;ratioP1;P1;durP2;ratioP2;P2;SDS_P1;SDS_P2;PMS_P1;PMS_P2;Temp;Humidity;BMP_temperature;BMP_pressure;BME280_temperature;BME280_humidity;BME280_pressure;Samples;Min_cycle;Max_cycle;Signal;HPM_P1;HPM_P2
2022/10/05 00:02:40;;;;;;;26.60;20.70;;;;;;;5.03;90.10;100131.84;429097;1275;146142;-71
2022/10/05 00:12:48;;;;;;;25.50;18.70;;;;;;;4.89;90.17;100128.82;430144;1274;143479;-71
2022/10/05 00:22:57;;;;;;;27.50;17.80;;;;;;;4.70;90.05;100122.47;430156;1273;144182;-70
2022/10/05 00:33:03;;;;;;;21.00;16.70;;;;;;;4.53;90.21;100110.15;430967;1273;142181;-71
2022/10/05 00:43:30;;;;;;;29.60;20.30;;;;;;;4.36;90.22;100095.41;430206;1273;147584;-69
2022/10/05 00:53:43;;;;;;;27.90;20.10;;;;;;;4.39;90.98;100087.03;429335;1274;148466;-69
2022/10/05 01:04:00;;;;;;;23.70;18.00;;;;;;;4.33;91.25;100096.03;429657;1274;148988;-69
2022/10/05 01:14:15;;;;;;;20.70;14.90;;;;;;;4.30;91.41;100081.05;429779;1273;144101;-70
2022/10/05 01:24:41;;;;;;;22.20;14.50;;;;;;;4.33;91.76;100081.12;431956;1276;199888;-71
2022/10/05 01:34:56;;;;;;;23.70;15.00;;;;;;;4.41;91.82;100076.54;430340;1273;143906;-71
2022/10/05 01:45:11;;;;;;;22.70;15.10;;;;;;;4.40;91.92;100092.88;429835;1273;145871;-70
2022/10/05 01:55:25;;;;;;;25.50;16.20;;;;;;;4.44;92.33;100105.94;432321;1273;141854;-70
2022/10/05 02:05:38;;;;;;;33.50;15.30;;;;;;;4.46;92.23;100110.88;430132;1273;143348;-70
2022/10/05 02:15:51;;;;;;;21.60;13.80;;;;;;;4.43;92.32;100095.38;432195;1273;141977;-68
2022/10/05 02:25:58;;;;;;;18.20;13.70;;;;;;;4.38;92.43;100067.95;430796;1273;146483;-68
2022/10/05 02:36:13;;;;;;;14.60;11.90;;;;;;;4.30;92.31;100069.92;429746;1273;143591;-68
2022/10/05 02:46:32;;;;;;;17.90;12.40;;;;;;;4.20;92.27;100070.06;431709;1273;143387;-70
2022/10/05 02:56:47;;;;;;;15.60;11.60;;;;;;;4.27;93.06;100067.42;430391;1273;142580;-69
2022/10/05 03:07:04;;;;;;;26.10;14.90;;;;;;;4.26;93.15;100076.65;431862;1273;142367;-69
2022/10/05 03:17:15;;;;;;;14.30;10.50;;;;;;;4.19;93.30;100054.16;430128;1273;143714;-68
2022/10/05 03:27:33;;;;;;;27.50;12.60;;;;;;;4.25;93.70;100067.64;431455;1273;142968;-70
2022/10/05 03:37:41;;;;;;;;;;;;;;;4.41;93.73;100055.23;432374;1273;144877;-69
2022/10/05 03:47:51;;;;;;;;;;;;;;;4.60;94.57;100025.31;429659;1273;131327;-70
2022/10/05 03:58:02;;;;;;;12.30;9.00;;;;;;;4.84;94.56;100032.71;430410;1271;128995;-70
2022/10/05 04:08:18;;;;;;;10.40;8.20;;;;;;;4.89;94.35;100034.61;429100;1273;143523;-68
2022/10/05 04:18:29;;;;;;;12.00;9.10;;;;;;;4.99;94.86;100025.63;430464;1273;142501;-69
2022/10/05 04:28:54;;;;;;;14.90;11.30;;;;;;;5.09;94.91;100033.60;431046;1272;143255;-71
2022/10/05 04:39:15;;;;;;;10.70;8.80;;;;;;;5.18;95.23;100023.59;429455;1273;144660;-68
2022/10/05 04:49:40;;;;;;;13.10;9.10;;;;;;;5.22;95.07;100020.67;430995;1273;141753;-69
2022/10/05 05:00:01;;;;;;;15.00;9.00;;;;;;;5.31;95.16;100043.79;429765;1273;144105;-70
2022/10/05 05:10:32;;;;;;;20.30;9.70;;;;;;;5.67;95.73;100046.00;430145;1273;143338;-70
2022/10/05 05:20:53;;;;;;;15.20;8.70;;;;;;;6.13;95.62;100046.23;429680;1273;201257;-70
2022/10/05 05:31:10;;;;;;;12.40;7.50;;;;;;;6.40;95.04;100044.01;430049;1273;142410;-71
2022/10/05 05:41:23;;;;;;;9.70;8.50;;;;;;;6.84;95.01;100044.50;429350;1272;144496;-71
2022/10/05 05:51:35;;;;;;;8.60;6.90;;;;;;;7.41;94.43;100050.83;432526;1273;145453;-70
2022/10/05 06:01:47;;;;;;;16.80;7.80;;;;;;;8.07;93.86;100040.73;431412;1275;141995;-69
2022/10/05 06:11:57;;;;;;;12.90;8.30;;;;;;;9.38;92.84;100030.01;429745;1273;143466;-67
2022/10/05 06:22:07;;;;;;;12.50;6.50;;;;;;;10.37;89.93;100041.04;430096;1274;143322;-71
2022/10/05 06:32:25;;;;;;;7.70;5.60;;;;;;;10.63;88.08;100035.58;430421;1273;142525;-63
2022/10/05 06:43:01;;;;;;;10.60;6.50;;;;;;;10.59;87.01;100040.75;430027;1273;141701;-62
2022/10/05 06:53:20;;;;;;;6.90;5.40;;;;;;;10.83;86.80;100036.02;430140;1273;143546;-64
2022/10/05 07:03:40;;;;;;;10.30;6.60;;;;;;;11.61;85.84;100046.02;429578;1273;198762;-63
2022/10/05 07:14:03;;;;;;;8.90;6.10;;;;;;;12.20;84.44;100060.81;430270;1273;143130;-64
2022/10/05 07:24:21;;;;;;;10.80;6.20;;;;;;;13.03;82.83;100060.19;429820;1273;144794;-63
2022/10/05 07:34:39;;;;;;;7.30;6.60;;;;;;;13.33;80.97;100059.45;430370;1273;142501;-60
2022/10/05 07:44:52;;;;;;;7.10;5.60;;;;;;;13.29;79.83;100040.44;436873;1273;186483;-63
2022/10/05 07:55:06;;;;;;;7.80;4.60;;;;;;;13.47;79.17;100028.99;446678;1274;142402;-62
2022/10/05 08:05:17;;;;;;;7.50;4.60;;;;;;;14.96;78.68;100022.16;445873;1274;151863;-63
2022/10/05 08:15:27;;;;;;;4.80;4.00;;;;;;;19.67;74.87;100004.58;446789;1274;142954;-63
2022/10/05 08:25:44;;;;;;;7.10;4.80;;;;;;;24.96;65.89;99986.84;446870;1274;144452;-63
2022/10/05 08:35:59;;;;;;;3.40;2.90;;;;;;;23.95;60.22;99980.54;445456;1274;142141;-61
2022/10/05 08:46:36;;;;;;;5.60;3.10;;;;;;;22.13;59.29;99979.98;443261;1274;142693;-63
2022/10/05 08:56:50;;;;;;;5.40;3.80;;;;;;;19.44;59.05;99990.20;445818;1275;211295;-62
2022/10/05 09:07:08;;;;;;;6.90;4.30;;;;;;;18.08;60.74;99987.36;446711;1275;141172;-61
2022/10/05 09:17:36;;;;;;;6.70;3.80;;;;;;;17.72;61.57;99984.98;445648;1275;141981;-62
2022/10/05 09:27:52;;;;;;;7.40;3.40;;;;;;;17.76;61.36;99983.61;446745;1274;143033;-63
2022/10/05 09:38:27;;;;;;;4.50;2.90;;;;;;;17.14;61.65;99979.15;442100;1274;142130;-60
2022/10/05 09:49:03;;;;;;;4.90;3.60;;;;;;;17.60;61.59;99987.26;442723;1274;141926;-63
2022/10/05 09:59:36;;;;;;;5.00;3.60;;;;;;;17.59;61.03;100010.40;445734;1275;142422;-64
2022/10/05 10:09:57;;;;;;;5.50;3.90;;;;;;;17.27;61.14;99999.69;446697;1275;142356;-62
2022/10/05 10:20:21;;;;;;;4.80;3.40;;;;;;;17.00;61.36;99994.65;446717;1275;141594;-63
2022/10/05 10:30:54;;;;;;;6.50;3.20;;;;;;;16.86;62.02;99994.04;446749;1273;196488;-63
2022/10/05 10:41:32;;;;;;;2.90;2.10;;;;;;;17.36;61.82;99985.09;443604;1274;142400;-62
2022/10/05 10:52:11;;;;;;;2.80;2.60;;;;;;;17.70;61.21;99965.15;446686;1273;141637;-63
2022/10/05 11:02:29;;;;;;;5.90;2.60;;;;;;;17.99;61.01;99969.17;446084;1274;142377;-63
2022/10/05 11:13:02;;;;;;;5.10;2.70;;;;;;;18.43;60.25;99964.91;446834;1274;141979;-62
2022/10/05 11:23:28;;;;;;;5.20;2.50;;;;;;;18.46;59.83;99959.88;446204;1275;142324;-64
2022/10/05 11:34:09;;;;;;;5.60;4.10;;;;;;;18.18;59.66;99944.17;446784;1274;143493;-63
2022/10/05 11:44:53;;;;;;;4.00;2.10;;;;;;;18.19;60.22;99945.64;437241;1273;142295;-64
2022/10/05 11:55:12;;;;;;;3.10;2.50;;;;;;;18.15;59.79;99938.22;447020;1272;195178;-62
2022/10/05 12:05:23;;;;;;;6.10;2.90;;;;;;;18.07;60.12;99934.31;445989;1275;143022;-64
2022/10/05 12:15:34;;;;;;;3.90;2.60;;;;;;;18.33;60.21;99926.70;447072;1273;141337;-63
2022/10/05 12:25:45;;;;;;;3.50;1.70;;;;;;;18.46;59.88;99907.42;447078;1273;145361;-64
2022/10/05 12:35:57;;;;;;;2.10;1.80;;;;;;;18.51;59.25;99904.13;446317;1272;142461;-62
2022/10/05 12:46:16;;;;;;;3.90;1.60;;;;;;;18.31;58.86;99902.21;437724;1273;141477;-63
2022/10/05 12:56:36;;;;;;;3.00;2.20;;;;;;;18.30;59.15;99893.79;446321;1273;142418;-63
2022/10/05 13:06:50;;;;;;;5.70;1.90;;;;;;;18.19;59.19;99883.50;447106;1273;140801;-63
2022/10/05 13:17:05;;;;;;;6.10;1.80;;;;;;;18.17;59.53;99891.08;447096;1273;142348;-63
2022/10/05 13:27:18;;;;;;;3.80;1.50;;;;;;;18.13;59.40;99882.80;447086;1272;141634;-63
2022/10/05 13:37:31;;;;;;;2.30;1.60;;;;;;;17.94;59.25;99878.35;446825;1274;143434;-63
2022/10/05 13:47:46;;;;;;;1.80;1.30;;;;;;;17.84;58.73;99873.69;441948;1273;142974;-62
2022/10/05 13:58:04;;;;;;;3.90;1.80;;;;;;;17.57;58.82;99862.38;447091;1273;144929;-62
2022/10/05 14:08:17;;;;;;;6.00;2.70;;;;;;;17.52;59.49;99861.25;446293;1273;160437;-63
2022/10/05 14:18:28;;;;;;;6.40;2.40;;;;;;;17.47;59.55;99852.64;447063;1273;142852;-63
2022/10/05 14:28:37;;;;;;;5.80;3.30;;;;;;;17.48;60.27;99853.85;447060;1273;141554;-63
2022/10/05 14:38:56;;;;;;;4.20;2.50;;;;;;;17.48;60.38;99849.21;446253;1273;143706;-62
2022/10/05 14:49:21;;;;;;;9.20;4.10;;;;;;;17.43;60.50;99851.22;445445;1273;141775;-63
2022/10/05 14:59:39;;;;;;;6.50;3.10;;;;;;;17.27;60.67;99835.70;445858;1275;143348;-62
2022/10/05 15:09:59;;;;;;;7.90;4.40;;;;;;;16.94;61.03;99822.93;443950;1273;143009;-61
2022/10/05 15:20:16;;;;;;;5.90;4.00;;;;;;;16.62;61.58;99815.44;432928;1273;142054;-64
2022/10/05 15:30:22;;;;;;;15.10;7.10;;;;;;;16.26;62.25;99815.82;447047;1272;143791;-63
2022/10/05 15:40:34;;;;;;;10.70;6.30;;;;;;;15.89;62.73;99811.41;446707;1272;183475;-63
2022/10/05 15:50:54;;;;;;;7.20;4.40;;;;;;;15.52;63.33;99803.83;445381;1273;145143;-63
2022/10/05 16:01:07;;;;;;;4.60;3.80;;;;;;;15.07;64.26;99803.31;447035;1273;142673;-63
2022/10/05 16:11:21;;;;;;;5.40;3.20;;;;;;;14.67;65.22;99796.89;446240;1272;144141;-62
2022/10/05 16:21:40;;;;;;;6.00;4.00;;;;;;;14.26;66.30;99794.77;446998;1271;142133;-62
2022/10/05 16:31:57;;;;;;;5.50;4.90;;;;;;;13.87;67.25;99792.76;443653;1273;144916;-63
2022/10/05 16:42:15;;;;;;;7.90;6.10;;;;;;;13.52;68.10;99800.52;433055;1273;142751;-63
2022/10/05 16:52:23;;;;;;;11.40;6.60;;;;;;;13.16;69.02;99804.87;432204;1273;145168;-62
2022/10/05 17:02:44;;;;;;;11.90;6.20;;;;;;;12.83;69.84;99801.36;430066;1273;163716;-63
2022/10/05 17:13:02;;;;;;;5.60;5.10;;;;;;;12.52;70.59;99796.32;430841;1273;143396;-63
2022/10/05 17:23:28;;;;;;;9.90;5.30;;;;;;;12.26;71.35;99791.38;430987;1273;142997;-67
2022/10/05 17:33:55;;;;;;;10.00;6.80;;;;;;;12.03;72.02;99804.64;431570;1273;142701;-68
2022/10/05 17:44:26;;;;;;;6.60;5.80;;;;;;;11.82;72.59;99798.94;431940;1273;143188;-63
2022/10/05 18:05:28;;;;;;;13.00;8.50;;;;;;;11.48;73.98;99790.80;429415;1275;146730;-61
2022/10/05 18:15:47;;;;;;;10.30;8.20;;;;;;;11.43;74.50;99779.07;431560;1273;144811;-63
2022/10/05 18:26:00;;;;;;;13.50;9.30;;;;;;;11.35;74.94;99774.52;440470;1273;142394;-63
2022/10/05 18:36:20;;;;;;;11.10;7.90;;;;;;;11.20;75.44;99778.61;429739;1273;142514;-64
2022/10/05 18:46:37;;;;;;;11.30;9.30;;;;;;;11.00;75.97;99780.70;431058;1273;142901;-63
2022/10/05 18:56:49;;;;;;;15.50;12.40;;;;;;;10.84;76.61;99772.92;429625;1274;144325;-63
2022/10/05 19:07:07;;;;;;;11.00;9.20;;;;;;;10.68;77.22;99772.68;430355;1275;143556;-62
2022/10/05 19:17:25;;;;;;;14.90;9.70;;;;;;;10.57;77.72;99780.90;429976;1275;145715;-60
2022/10/05 19:27:42;;;;;;;12.30;7.40;;;;;;;10.47;78.28;99781.12;430065;1274;145984;-62
2022/10/05 19:38:01;;;;;;;8.90;6.70;;;;;;;10.45;78.74;99776.68;430064;1275;200451;-63
2022/10/05 19:48:22;;;;;;;15.20;7.90;;;;;;;10.45;79.09;99779.84;430523;1274;144202;-63
2022/10/05 19:58:30;;;;;;;19.70;8.20;;;;;;;10.38;79.10;99784.62;429511;1276;144489;-64
2022/10/05 20:08:42;;;;;;;10.70;7.00;;;;;;;10.31;79.77;99784.15;429210;1273;141812;-69
2022/10/05 20:29:14;;;;;;;8.70;6.30;;;;;;;10.16;80.42;99801.16;429859;1272;142574;-64
2022/10/05 20:39:21;;;;;;;8.20;5.90;;;;;;;10.08;80.74;99811.58;430889;1275;142631;-64
2022/10/05 20:49:29;;;;;;;13.40;7.10;;;;;;;9.96;81.08;99816.45;430630;1274;200385;-66
2022/10/05 20:59:37;;;;;;;8.20;5.80;;;;;;;9.82;81.54;99816.23;429498;1274;141636;-66
2022/10/05 21:09:45;;;;;;;12.10;7.00;;;;;;;9.61;81.89;99827.17;429233;1275;146294;-65
2022/10/05 21:19:52;;;;;;;11.00;6.40;;;;;;;9.43;82.40;99836.34;433638;1274;143047;-65
2022/10/05 21:29:59;;;;;;;6.80;6.00;;;;;;;9.26;82.73;99844.63;429297;1274;142637;-66
2022/10/05 21:40:07;;;;;;;9.60;7.60;;;;;;;9.05;83.30;99849.95;431760;1273;141752;-67
2022/10/05 21:50:14;;;;;;;11.90;6.70;;;;;;;8.85;83.80;99853.77;429540;1273;142464;-65
2022/10/05 22:00:21;;;;;;;8.20;7.30;;;;;;;8.69;84.19;99855.64;430490;1273;141441;-65
2022/10/05 22:10:27;;;;;;;10.70;7.40;;;;;;;8.63;84.89;99859.81;430303;1273;141699;-67
2022/10/05 22:20:35;;;;;;;12.60;7.10;;;;;;;8.56;85.11;99860.67;429467;1273;145131;-65
2022/10/05 22:30:42;;;;;;;6.70;5.40;;;;;;;8.50;85.66;99870.23;429699;1274;143051;-66
2022/10/05 22:40:48;;;;;;;8.10;7.20;;;;;;;8.48;86.09;99876.23;430374;1273;141238;-64
2022/10/05 22:50:54;;;;;;;7.70;5.10;;;;;;;8.40;86.42;99881.66;429794;1272;142025;-64
2022/10/05 23:01:03;;;;;;;6.90;5.10;;;;;;;8.37;86.93;99893.02;429775;1273;142007;-64
2022/10/05 23:11:12;;;;;;;8.20;6.30;;;;;;;8.30;87.29;99892.98;429503;1273;162939;-65
2022/10/05 23:21:19;;;;;;;8.10;6.00;;;;;;;8.22;87.34;99896.38;430049;1273;141223;-63
2022/10/05 23:31:29;;;;;;;10.70;7.50;;;;;;;8.10;87.83;99903.56;430460;1273;142064;-63
2022/10/05 23:41:34;;;;;;;8.80;7.40;;;;;;;8.01;88.37;99903.83;436486;1273;142116;-63
2022/10/05 23:51:41;;;;;;;10.40;7.60;;;;;;;7.88;88.35;99907.74;431867;1273;143058;-64
